createdAt,value
2023-03-02T00:01:29.186Z,53.24
2023-03-02T00:03:59.127Z,53.02
2023-03-02T00:06:28.673Z,52.50
2023-03-02T00:08:56.565Z,54.09
2023-03-02T00:11:24.055Z,53.96
2023-03-02T00:13:51.384Z,53.56
2023-03-02T00:16:19.038Z,54.02
2023-03-02T00:18:46.434Z,53.65
2023-03-02T00:21:13.882Z,53.20
2023-03-02T00:23:41.194Z,54.08
2023-03-02T00:26:08.877Z,55.21
2023-03-02T00:28:36.920Z,54.70
2023-03-02T00:31:05.629Z,54.75
2023-03-02T00:33:33.577Z,54.10
2023-03-02T00:36:01.478Z,54.11
2023-03-02T00:38:30.220Z,54.39
2023-03-02T00:40:59.693Z,54.75
2023-03-02T00:43:27.999Z,54.67
2023-03-02T00:45:55.667Z,55.18
2023-03-02T00:48:22.940Z,54.99
2023-03-02T00:50:50.242Z,54.96
2023-03-02T00:53:19.434Z,56.05
2023-03-02T00:55:55.053Z,55.95
2023-03-02T00:58:23.738Z,55.79
2023-03-02T01:00:51.325Z,56.08
2023-03-02T01:03:21.001Z,56.09
2023-03-02T01:05:48.780Z,55.98
2023-03-02T01:08:16.188Z,56.27
2023-03-02T01:10:43.719Z,56.41
2023-03-02T01:13:11.064Z,55.52
2023-03-02T01:15:38.501Z,55.60
2023-03-02T01:18:05.850Z,55.83
2023-03-02T01:20:33.412Z,55.47
2023-03-02T01:23:00.894Z,55.92
2023-03-02T01:25:28.216Z,55.53
2023-03-02T01:27:56.211Z,55.91
2023-03-02T01:30:23.632Z,56.19
2023-03-02T01:32:52.490Z,56.03
2023-03-02T01:35:19.719Z,55.48
2023-03-02T01:37:47.134Z,55.53
2023-03-02T01:40:14.743Z,56.10
2023-03-02T01:42:51.344Z,56.85
2023-03-02T01:45:43.811Z,58.43
2023-03-02T01:48:12.855Z,58.22
2023-03-02T01:50:40.233Z,57.01
2023-03-02T01:53:08.393Z,56.93
2023-03-02T01:55:38.263Z,57.62
2023-03-02T01:58:05.724Z,58.08
2023-03-02T02:00:38.592Z,59.01
2023-03-02T02:03:15.927Z,60.10
2023-03-02T02:05:44.315Z,59.65
2023-03-02T02:08:11.757Z,59.17
2023-03-02T02:10:40.076Z,59.31
2023-03-02T02:13:11.272Z,59.88
2023-03-02T02:15:39.558Z,60.00
2023-03-02T02:18:07.609Z,59.08
2023-03-02T02:20:42.539Z,60.15
2023-03-02T02:23:19.604Z,60.86
2023-03-02T02:25:53.156Z,60.92
2023-03-02T02:28:28.096Z,59.90
2023-03-02T02:31:16.447Z,59.40
2023-03-02T02:33:46.960Z,58.99
2023-03-02T02:36:19.512Z,58.57
2023-03-02T02:38:48.900Z,58.86
2023-03-02T02:41:25.902Z,58.67
2023-03-02T02:43:54.039Z,59.54
2023-03-02T02:46:21.949Z,60.04
2023-03-02T02:48:50.141Z,60.02
2023-03-02T02:51:23.818Z,60.89
2023-03-02T02:54:01.205Z,60.76
2023-03-02T02:56:38.455Z,60.90
2023-03-02T02:59:15.361Z,61.10
2023-03-02T03:01:43.594Z,61.28
2023-03-02T03:04:14.316Z,61.24
2023-03-02T03:07:07.426Z,61.02
2023-03-02T03:09:35.077Z,61.60
2023-03-02T03:12:20.767Z,61.24
2023-03-02T03:14:48.369Z,62.11
2023-03-02T03:17:16.055Z,62.25
2023-03-02T03:19:52.562Z,61.96
2023-03-02T03:22:20.477Z,62.18
2023-03-02T03:24:50.159Z,61.89
2023-03-02T03:27:19.122Z,62.53
2023-03-02T03:29:50.740Z,63.87
2023-03-02T03:32:40.429Z,63.47
2023-03-02T03:35:11.649Z,63.79
2023-03-02T03:37:41.244Z,64.19
2023-03-02T03:40:10.057Z,63.91
2023-03-02T03:42:40.433Z,63.78
2023-03-02T03:45:09.248Z,63.17
2023-03-02T03:47:37.873Z,62.89
2023-03-02T03:50:08.446Z,62.81
2023-03-02T03:52:36.566Z,63.11
2023-03-02T03:55:19.477Z,64.21
2023-03-02T03:57:48.764Z,64.81
2023-03-02T04:00:19.425Z,64.51
2023-03-02T04:02:52.276Z,64.20
2023-03-02T04:05:20.359Z,64.77
2023-03-02T04:07:51.276Z,65.07
2023-03-02T04:10:19.460Z,64.01
2023-03-02T04:12:47.533Z,63.59
2023-03-02T04:15:17.105Z,62.94
2023-03-02T04:17:46.210Z,63.54
2023-03-02T04:20:16.853Z,64.65
2023-03-02T04:22:48.979Z,64.34
2023-03-02T04:25:19.822Z,63.65
2023-03-02T04:27:49.100Z,64.03
2023-03-02T04:30:19.934Z,63.07
2023-03-02T04:32:47.636Z,63.52
2023-03-02T04:35:16.055Z,63.73
2023-03-02T04:37:44.532Z,63.49
2023-03-02T04:40:12.720Z,63.96
2023-03-02T04:42:40.151Z,64.37
2023-03-02T04:45:08.113Z,64.50
2023-03-02T04:47:35.437Z,64.75
2023-03-02T04:50:03.139Z,64.48
2023-03-02T04:52:30.832Z,64.40
2023-03-02T04:54:58.439Z,62.79
2023-03-02T04:57:25.728Z,63.23
2023-03-02T04:59:52.930Z,64.58
2023-03-02T05:02:20.342Z,64.45
2023-03-02T05:04:47.813Z,64.67
2023-03-02T05:07:15.249Z,63.89
2023-03-02T05:09:42.704Z,64.27
2023-03-02T05:12:09.904Z,64.33
2023-03-02T05:14:37.413Z,64.24
2023-03-02T05:17:04.793Z,64.94
2023-03-02T05:19:32.350Z,65.36
2023-03-02T05:21:59.699Z,64.46
2023-03-02T05:24:27.217Z,64.38
2023-03-02T05:26:54.798Z,63.84
2023-03-02T05:29:22.234Z,64.30
2023-03-02T05:31:51.354Z,63.28
2023-03-02T05:34:18.951Z,65.48
2023-03-02T05:36:46.506Z,65.80
2023-03-02T05:39:14.007Z,65.28
2023-03-02T05:41:42.443Z,65.00
2023-03-02T05:44:12.055Z,64.72
2023-03-02T05:46:39.687Z,64.46
2023-03-02T05:49:07.059Z,64.19
2023-03-02T05:51:34.536Z,65.21
2023-03-02T05:54:02.261Z,64.86
2023-03-02T05:56:30.318Z,66.28
2023-03-02T05:58:58.000Z,67.10
2023-03-02T06:01:25.431Z,67.04
2023-03-02T06:03:52.693Z,67.49
2023-03-02T06:06:20.040Z,67.10
2023-03-02T06:08:47.445Z,66.83
2023-03-02T06:11:14.938Z,66.95
2023-03-02T06:13:42.236Z,66.61
2023-03-02T06:16:09.885Z,66.00
2023-03-02T06:18:39.750Z,64.88
2023-03-02T06:21:08.850Z,65.69
2023-03-02T06:23:36.177Z,66.02
2023-03-02T06:26:12.929Z,66.10
2023-03-02T06:28:51.945Z,66.08
2023-03-02T06:31:20.849Z,66.64
2023-03-02T06:33:48.334Z,67.52
2023-03-02T06:36:17.260Z,66.68
2023-03-02T06:38:45.114Z,66.27
2023-03-02T06:41:12.506Z,65.86
2023-03-02T06:43:39.903Z,65.85
2023-03-02T06:46:07.655Z,65.29
2023-03-02T06:48:34.960Z,65.50
2023-03-02T06:51:02.210Z,66.19
2023-03-02T06:53:29.654Z,66.57
2023-03-02T06:55:57.399Z,66.33
2023-03-02T06:58:25.188Z,67.35
2023-03-02T07:00:53.002Z,66.89
2023-03-02T07:03:20.586Z,67.18
2023-03-02T07:05:49.217Z,67.40
2023-03-02T07:08:16.698Z,67.88
2023-03-02T07:10:44.427Z,67.75
2023-03-02T07:13:11.609Z,67.16
2023-03-02T07:15:40.073Z,66.79
2023-03-02T07:18:07.753Z,66.34
2023-03-02T07:20:35.350Z,68.13
2023-03-02T07:23:02.740Z,64.24
2023-03-02T07:25:31.219Z,63.66
2023-03-02T07:27:58.911Z,64.13
2023-03-02T07:30:26.321Z,65.20
2023-03-02T07:32:53.755Z,64.50
2023-03-02T07:35:21.105Z,64.59
2023-03-02T07:37:48.829Z,64.03
2023-03-02T07:40:16.438Z,64.81
2023-03-02T07:42:44.027Z,64.72
2023-03-02T07:45:14.150Z,63.97
2023-03-02T07:47:41.664Z,65.20
2023-03-02T07:50:09.586Z,64.92
2023-03-02T07:52:36.877Z,64.85
2023-03-02T07:55:04.438Z,64.85
2023-03-02T07:57:31.922Z,64.71
2023-03-02T07:59:59.454Z,64.13
2023-03-02T08:02:26.934Z,63.70
2023-03-02T08:04:54.379Z,63.76
2023-03-02T08:07:21.707Z,63.36
2023-03-02T08:09:49.042Z,63.72
2023-03-02T08:12:16.351Z,64.34
2023-03-02T08:14:44.214Z,65.07
2023-03-02T08:17:11.486Z,65.46
2023-03-02T08:19:38.847Z,65.45
2023-03-02T08:22:06.399Z,65.76
2023-03-02T08:24:33.881Z,64.96
2023-03-02T08:27:02.175Z,65.44
2023-03-02T08:29:30.151Z,64.64
2023-03-02T08:31:58.993Z,65.52
2023-03-02T08:34:26.947Z,65.39
2023-03-02T08:36:54.283Z,64.01
2023-03-02T08:39:24.571Z,64.99
2023-03-02T08:41:52.998Z,64.45
2023-03-02T08:44:23.048Z,64.75
2023-03-02T08:46:51.332Z,64.04
2023-03-02T08:49:19.518Z,63.34
2023-03-02T08:51:56.652Z,63.18
2023-03-02T08:54:29.009Z,63.29
2023-03-02T08:56:59.827Z,62.92
2023-03-02T08:59:32.682Z,62.34
2023-03-02T09:01:59.994Z,62.30
2023-03-02T09:04:27.351Z,62.89
2023-03-02T09:06:54.923Z,62.76
2023-03-02T09:09:22.310Z,62.78
2023-03-02T09:11:49.605Z,63.06
2023-03-02T09:14:17.037Z,63.32
2023-03-02T09:16:45.478Z,62.21
2023-03-02T09:19:13.860Z,61.95
2023-03-02T09:21:41.167Z,61.76
2023-03-02T09:24:08.859Z,61.48
2023-03-02T09:26:36.215Z,60.62
2023-03-02T09:29:03.896Z,60.90
2023-03-02T09:31:31.466Z,59.57
2023-03-02T09:33:59.036Z,60.47
2023-03-02T09:36:26.969Z,59.80
2023-03-02T09:38:55.251Z,58.73
2023-03-02T09:41:22.769Z,60.28
2023-03-02T09:44:38.028Z,60.76
2023-03-02T09:47:19.769Z,60.30
2023-03-02T09:50:03.488Z,60.08
2023-03-02T09:52:37.460Z,60.33
2023-03-02T09:55:14.491Z,59.38
2023-03-02T09:57:43.056Z,58.48
2023-03-02T10:00:19.881Z,58.89
2023-03-02T10:02:54.586Z,57.84
2023-03-02T10:05:31.827Z,56.86
2023-03-02T10:07:59.551Z,56.85
2023-03-02T10:10:37.910Z,57.11
2023-03-02T10:13:27.265Z,57.11
2023-03-02T10:15:56.596Z,57.14
2023-03-02T10:18:45.534Z,57.21
2023-03-02T10:21:21.660Z,56.87
2023-03-02T10:24:01.687Z,56.47
2023-03-02T10:26:48.804Z,55.83
2023-03-02T10:29:25.553Z,55.33
2023-03-02T10:32:28.254Z,55.07
2023-03-02T10:34:55.906Z,55.01
2023-03-02T10:37:25.686Z,55.56
2023-03-02T10:39:53.088Z,55.78
2023-03-02T10:42:31.366Z,55.17
2023-03-02T10:45:17.003Z,54.80
2023-03-02T10:47:44.512Z,54.80
2023-03-02T10:50:22.364Z,54.52
2023-03-02T10:52:59.781Z,54.36
2023-03-02T10:55:28.710Z,53.93
2023-03-02T10:58:22.718Z,53.11
2023-03-02T11:01:05.435Z,53.36
2023-03-02T11:03:34.403Z,53.63
2023-03-02T11:06:18.168Z,53.53
2023-03-02T11:08:45.821Z,53.23
2023-03-02T11:11:24.176Z,53.05
2023-03-02T11:13:51.478Z,52.43
2023-03-02T11:16:18.928Z,51.84
2023-03-02T11:19:05.011Z,51.82
2023-03-02T11:21:42.179Z,51.45
2023-03-02T11:24:17.136Z,50.97
2023-03-02T11:26:52.837Z,50.83
2023-03-02T11:29:33.909Z,49.76
2023-03-02T11:32:09.111Z,49.44
2023-03-02T11:34:48.562Z,51.28
2023-03-02T11:37:23.168Z,51.32
2023-03-02T11:40:14.557Z,50.26
2023-03-02T11:42:46.698Z,49.89
2023-03-02T11:45:13.974Z,51.26
2023-03-02T11:48:11.256Z,50.23
2023-03-02T11:50:50.393Z,49.52
2023-03-02T11:53:19.654Z,48.97
2023-03-02T11:55:49.740Z,49.49
2023-03-02T11:58:24.301Z,48.96
2023-03-02T12:00:52.426Z,48.31
2023-03-02T12:03:31.752Z,48.09
2023-03-02T12:06:07.145Z,47.96
2023-03-02T12:08:39.047Z,48.71
2023-03-02T12:11:28.917Z,47.88
2023-03-02T12:14:07.378Z,47.50
2023-03-02T12:16:37.653Z,46.73
2023-03-02T12:19:24.877Z,47.08
2023-03-02T12:22:01.082Z,47.10
2023-03-02T12:24:30.022Z,47.12
2023-03-02T12:27:25.575Z,46.63
2023-03-02T12:30:08.117Z,46.51
2023-03-02T12:32:35.996Z,46.31
2023-03-02T12:35:12.701Z,46.88
2023-03-02T12:38:00.781Z,46.18
2023-03-02T12:40:46.531Z,46.40
2023-03-02T12:43:27.407Z,46.46
2023-03-02T12:46:21.402Z,46.92
2023-03-02T12:49:13.613Z,47.10
2023-03-02T12:51:56.204Z,46.79
2023-03-02T12:54:29.305Z,46.30
2023-03-02T12:57:08.788Z,45.61
2023-03-02T12:59:36.544Z,45.98
2023-03-02T13:02:25.341Z,45.35
2023-03-02T13:04:58.804Z,45.25
2023-03-02T13:07:42.308Z,45.73
2023-03-02T13:10:27.130Z,45.91
2023-03-02T13:12:54.823Z,45.59
2023-03-02T13:15:22.487Z,45.66
2023-03-02T13:17:56.026Z,45.93
2023-03-02T13:20:27.057Z,45.86
2023-03-02T13:22:54.823Z,45.90
2023-03-02T13:25:29.787Z,44.82
2023-03-02T13:28:07.952Z,45.35
2023-03-02T13:30:37.545Z,45.31
2023-03-02T13:33:35.535Z,45.20
2023-03-02T13:36:04.218Z,45.70
2023-03-02T13:38:37.238Z,45.42
2023-03-02T13:41:05.078Z,45.47
2023-03-02T13:43:38.174Z,45.48
2023-03-02T13:46:17.566Z,45.43
2023-03-02T13:49:07.489Z,45.38
2023-03-02T13:51:39.691Z,45.40
2023-03-02T13:54:17.181Z,45.33
2023-03-02T13:56:46.628Z,45.77
2023-03-02T13:59:17.444Z,45.61
2023-03-02T14:01:45.115Z,45.42
2023-03-02T14:04:17.630Z,45.33
2023-03-02T14:06:45.782Z,45.27
2023-03-02T14:09:13.856Z,45.50
2023-03-02T14:11:47.302Z,45.36
2023-03-02T14:14:19.795Z,45.19
2023-03-02T14:16:47.523Z,45.09
2023-03-02T14:19:18.459Z,44.90
2023-03-02T14:21:46.708Z,44.84
2023-03-02T14:24:14.488Z,45.14
2023-03-02T14:26:44.096Z,45.11
2023-03-02T14:29:23.430Z,45.07
2023-03-02T14:31:51.260Z,45.18
2023-03-02T14:34:18.667Z,45.36
2023-03-02T14:36:49.204Z,44.95
2023-03-02T14:39:33.974Z,45.09
2023-03-02T14:42:01.546Z,45.23
2023-03-02T14:44:28.864Z,44.92
2023-03-02T14:46:57.612Z,44.99
2023-03-02T14:49:25.450Z,45.08
2023-03-02T14:52:00.798Z,45.11
2023-03-02T14:54:51.923Z,45.06
2023-03-02T14:57:25.370Z,45.13
2023-03-02T14:59:53.769Z,45.19
2023-03-02T15:02:31.108Z,44.90
2023-03-02T15:04:58.613Z,45.00
2023-03-02T15:07:27.594Z,45.00
2023-03-02T15:09:58.717Z,45.25
2023-03-02T15:12:26.332Z,45.46
2023-03-02T15:14:53.915Z,44.93
2023-03-02T15:17:22.019Z,45.07
2023-03-02T15:19:49.491Z,45.22
2023-03-02T15:22:16.733Z,45.45
2023-03-02T15:24:44.143Z,45.13
2023-03-02T15:27:11.710Z,45.41
2023-03-02T15:29:39.093Z,45.12
2023-03-02T15:32:07.569Z,45.25
2023-03-02T15:34:34.966Z,45.11
2023-03-02T15:37:02.441Z,45.10
2023-03-02T15:39:30.245Z,45.94
2023-03-02T15:41:57.513Z,46.23
2023-03-02T15:44:25.700Z,46.48
2023-03-02T15:46:54.705Z,46.10
2023-03-02T15:49:24.794Z,46.22
2023-03-02T15:51:52.971Z,46.40
2023-03-02T15:54:21.402Z,46.24
2023-03-02T15:56:53.463Z,46.41
2023-03-02T15:59:25.542Z,46.16
2023-03-02T16:01:53.807Z,46.09
2023-03-02T16:04:21.240Z,46.01
2023-03-02T16:06:48.573Z,45.87
2023-03-02T16:09:15.955Z,46.05
2023-03-02T16:11:43.585Z,46.61
2023-03-02T16:14:13.216Z,46.44
2023-03-02T16:16:41.058Z,47.07
2023-03-02T16:19:14.054Z,47.34
2023-03-02T16:21:41.786Z,47.38
2023-03-02T16:24:09.942Z,47.25
2023-03-02T16:26:38.267Z,47.26
2023-03-02T16:29:08.093Z,47.17
2023-03-02T16:31:37.876Z,47.01
2023-03-02T16:34:09.948Z,47.00
2023-03-02T16:36:39.078Z,47.00
2023-03-02T16:39:07.675Z,47.48
2023-03-02T16:41:35.707Z,47.97
2023-03-02T16:44:03.232Z,48.06
2023-03-02T16:46:32.941Z,47.81
2023-03-02T16:49:01.008Z,47.69
2023-03-02T16:51:28.650Z,48.11
2023-03-02T16:53:56.358Z,48.09
2023-03-02T16:56:23.625Z,48.36
2023-03-02T16:58:50.824Z,48.37
2023-03-02T17:01:20.709Z,48.69
2023-03-02T17:03:50.139Z,49.28
2023-03-02T17:06:21.402Z,49.44
2023-03-02T17:08:50.861Z,49.55
2023-03-02T17:11:18.954Z,49.13
2023-03-02T17:13:46.753Z,49.13
2023-03-02T17:16:16.342Z,49.25
2023-03-02T17:18:46.960Z,49.84
2023-03-02T17:21:16.342Z,49.54
2023-03-02T17:23:44.338Z,49.78
2023-03-02T17:26:11.805Z,50.37
2023-03-02T17:28:39.318Z,50.78
2023-03-02T17:31:07.197Z,50.61
2023-03-02T17:33:34.987Z,50.94
2023-03-02T17:36:06.231Z,51.30
2023-03-02T17:38:34.156Z,51.29
2023-03-02T17:41:03.730Z,51.62
2023-03-02T17:43:35.466Z,51.69
2023-03-02T17:46:36.326Z,51.08
2023-03-02T17:49:04.160Z,51.09
2023-03-02T17:51:31.937Z,51.43
2023-03-02T17:53:59.204Z,51.47
2023-03-02T17:56:27.928Z,51.23
2023-03-02T17:58:57.541Z,50.76
2023-03-02T18:01:25.233Z,51.41
2023-03-02T18:03:52.805Z,51.42
2023-03-02T18:06:20.847Z,52.06
2023-03-02T18:08:49.154Z,52.16
2023-03-02T18:11:18.090Z,52.15
2023-03-02T18:13:45.430Z,52.19
2023-03-02T18:16:15.908Z,51.78
2023-03-02T18:18:43.513Z,51.87
2023-03-02T18:21:10.819Z,50.96
2023-03-02T18:23:39.874Z,51.49
2023-03-02T18:26:07.423Z,52.40
2023-03-02T18:28:34.867Z,51.86
2023-03-02T18:31:03.321Z,52.35
2023-03-02T18:33:30.860Z,52.36
2023-03-02T18:35:59.264Z,51.77
2023-03-02T18:38:30.919Z,52.53
2023-03-02T18:41:00.977Z,52.41
2023-03-02T18:43:31.559Z,53.43
2023-03-02T18:45:58.923Z,53.63
2023-03-02T18:48:26.311Z,53.01
2023-03-02T18:50:54.277Z,53.19
2023-03-02T18:53:21.641Z,53.27
2023-03-02T18:55:52.552Z,52.54
2023-03-02T18:58:22.910Z,53.05
2023-03-02T19:00:53.278Z,53.23
2023-03-02T19:03:20.984Z,53.04
2023-03-02T19:05:48.662Z,53.05
2023-03-02T19:08:16.815Z,53.52
2023-03-02T19:10:44.206Z,54.19
2023-03-02T19:13:12.952Z,54.12
2023-03-02T19:15:40.459Z,53.84
2023-03-02T19:18:08.819Z,53.65
2023-03-02T19:20:36.200Z,53.01
2023-03-02T19:23:03.536Z,53.54
2023-03-02T19:25:31.194Z,54.34
2023-03-02T19:27:58.656Z,54.17
2023-03-02T19:30:27.086Z,53.84
2023-03-02T19:32:55.060Z,53.68
2023-03-02T19:35:24.683Z,54.00
2023-03-02T19:37:52.283Z,53.71
2023-03-02T19:40:22.955Z,55.13
2023-03-02T19:42:51.332Z,54.68
2023-03-02T19:45:28.613Z,54.55
2023-03-02T19:47:57.792Z,53.80
2023-03-02T19:50:26.658Z,54.52
2023-03-02T19:52:56.081Z,54.43
2023-03-02T19:55:24.764Z,55.03
2023-03-02T19:57:59.606Z,55.95
2023-03-02T20:00:29.476Z,55.85
2023-03-02T20:02:57.698Z,55.24
2023-03-02T20:05:27.584Z,55.32
2023-03-02T20:07:55.400Z,55.83
2023-03-02T20:10:28.264Z,55.70
2023-03-02T20:12:55.779Z,56.59
2023-03-02T20:15:24.676Z,57.12
2023-03-02T20:17:52.402Z,56.71
2023-03-02T20:20:19.841Z,56.48
2023-03-02T20:22:47.376Z,56.79
2023-03-02T20:25:14.942Z,56.71
2023-03-02T20:27:44.026Z,56.69
2023-03-02T20:30:19.562Z,56.41
2023-03-02T20:32:47.409Z,56.11
2023-03-02T20:35:14.924Z,56.88
2023-03-02T20:37:42.332Z,56.27
2023-03-02T20:40:09.970Z,56.41
2023-03-02T20:42:37.544Z,57.79
2023-03-02T20:45:05.476Z,57.98
2023-03-02T20:47:33.037Z,58.17
2023-03-02T20:50:00.557Z,58.00
2023-03-02T20:52:28.275Z,58.13
2023-03-02T20:54:55.881Z,58.21
2023-03-02T20:57:23.855Z,58.13
2023-03-02T20:59:51.354Z,57.96
2023-03-02T21:02:19.917Z,58.30
2023-03-02T21:04:47.870Z,58.91
2023-03-02T21:07:15.650Z,58.56
2023-03-02T21:09:43.729Z,58.41
2023-03-02T21:12:12.006Z,57.86
2023-03-02T21:14:40.509Z,57.56
2023-03-02T21:17:08.469Z,57.83
2023-03-02T21:19:35.900Z,58.26
2023-03-02T21:22:03.452Z,58.58
2023-03-02T21:24:30.859Z,57.55
2023-03-02T21:27:00.310Z,57.20
2023-03-02T21:29:27.923Z,58.08
2023-03-02T21:31:55.695Z,58.44
2023-03-02T21:34:23.215Z,58.24
2023-03-02T21:36:53.651Z,58.92
2023-03-02T21:39:23.650Z,59.28
2023-03-02T21:41:52.055Z,58.97
2023-03-02T21:44:19.707Z,59.27
2023-03-02T21:46:47.320Z,59.30
2023-03-02T21:49:16.683Z,60.06
2023-03-02T21:51:44.175Z,60.28
2023-03-02T21:54:11.557Z,60.60
2023-03-02T21:56:39.132Z,60.85
2023-03-02T21:59:06.674Z,60.35
2023-03-02T22:01:34.262Z,60.71
2023-03-02T22:04:01.716Z,60.32
2023-03-02T22:06:31.604Z,59.71
2023-03-02T22:08:59.206Z,59.81
2023-03-02T22:11:29.412Z,59.33
2023-03-02T22:13:59.191Z,59.80
2023-03-02T22:16:29.127Z,59.65
2023-03-02T22:18:58.786Z,59.48
2023-03-02T22:21:47.736Z,60.37
2023-03-02T22:24:19.589Z,61.46
2023-03-02T22:26:52.371Z,60.67
2023-03-02T22:29:43.046Z,60.51
2023-03-02T22:32:15.959Z,59.81
2023-03-02T22:34:43.941Z,60.69
2023-03-02T22:37:17.660Z,60.93
2023-03-02T22:39:46.198Z,61.34
2023-03-02T22:42:25.223Z,61.42
2023-03-02T22:45:10.115Z,60.79
2023-03-02T22:47:37.452Z,59.88
2023-03-02T22:50:25.862Z,60.66
2023-03-02T22:52:54.377Z,60.52
2023-03-02T22:55:48.997Z,60.48
2023-03-02T22:58:22.348Z,61.11
2023-03-02T23:00:49.874Z,62.00
2023-03-02T23:03:19.929Z,62.04
2023-03-02T23:05:49.536Z,62.71
2023-03-02T23:08:23.948Z,63.64
2023-03-02T23:10:54.019Z,63.98
2023-03-02T23:13:22.263Z,64.27
2023-03-02T23:15:50.232Z,65.26
2023-03-02T23:18:29.279Z,65.40
2023-03-02T23:20:57.157Z,65.23
2023-03-02T23:23:25.174Z,65.62
2023-03-02T23:25:52.510Z,65.50
2023-03-02T23:28:19.977Z,66.77
2023-03-02T23:30:47.708Z,67.83
2023-03-02T23:33:14.933Z,68.25
2023-03-02T23:35:42.427Z,67.92
2023-03-02T23:38:09.863Z,68.48
2023-03-02T23:40:37.265Z,68.34
2023-03-02T23:43:04.689Z,68.10
2023-03-02T23:45:32.022Z,67.74
2023-03-02T23:47:59.626Z,67.49
2023-03-02T23:50:36.801Z,66.68
2023-03-02T23:53:04.253Z,67.19
2023-03-02T23:55:32.420Z,67.90
2023-03-02T23:57:59.887Z,69.28
